sensor_id;sensor_type;location;lat;lon;timestamp;P1;durP1;ratioP1;P2;durP2;ratioP2
54123;SDS011;55741;53.252;5.788;2022-10-16T00:02:01;11.15;;;2.08;;
54123;SDS011;55741;53.252;5.788;2022-10-16T00:04:27;12.05;;;3.13;;
54123;SDS011;55741;53.252;5.788;2022-10-16T00:06:53;9.00;;;2.67;;
54123;SDS011;55741;53.252;5.788;2022-10-16T00:09:19;11.60;;;2.33;;
54123;SDS011;55741;53.252;5.788;2022-10-16T00:11:45;9.45;;;2.03;;
54123;SDS011;55741;53.252;5.788;2022-10-16T00:14:12;8.43;;;2.03;;
54123;SDS011;55741;53.252;5.788;2022-10-16T00:16:39;9.35;;;2.00;;
54123;SDS011;55741;53.252;5.788;2022-10-16T00:19:05;6.10;;;1.73;;
54123;SDS011;55741;53.252;5.788;2022-10-16T00:21:31;11.40;;;2.30;;
54123;SDS011;55741;53.252;5.788;2022-10-16T00:23:58;10.55;;;2.25;;
54123;SDS011;55741;53.252;5.788;2022-10-16T00:26:30;5.82;;;1.67;;
54123;SDS011;55741;53.252;5.788;2022-10-16T00:28:57;15.70;;;2.30;;
54123;SDS011;55741;53.252;5.788;2022-10-16T00:31:23;8.93;;;1.98;;
54123;SDS011;55741;53.252;5.788;2022-10-16T00:33:50;10.88;;;2.22;;
54123;SDS011;55741;53.252;5.788;2022-10-16T00:36:20;9.77;;;2.08;;
54123;SDS011;55741;53.252;5.788;2022-10-16T00:38:49;9.77;;;2.13;;
54123;SDS011;55741;53.252;5.788;2022-10-16T00:41:22;8.10;;;1.63;;
54123;SDS011;55741;53.252;5.788;2022-10-16T00:43:50;6.15;;;2.00;;
54123;SDS011;55741;53.252;5.788;2022-10-16T00:49:14;6.07;;;1.77;;
54123;SDS011;55741;53.252;5.788;2022-10-16T00:51:46;10.25;;;2.03;;
54123;SDS011;55741;53.252;5.788;2022-10-16T00:54:15;11.07;;;1.60;;
54123;SDS011;55741;53.252;5.788;2022-10-16T00:56:46;10.93;;;1.60;;
54123;SDS011;55741;53.252;5.788;2022-10-16T00:59:16;10.80;;;1.70;;
54123;SDS011;55741;53.252;5.788;2022-10-16T01:01:45;12.32;;;1.85;;
54123;SDS011;55741;53.252;5.788;2022-10-16T01:04:11;4.93;;;1.70;;
54123;SDS011;55741;53.252;5.788;2022-10-16T01:09:28;8.73;;;1.98;;
54123;SDS011;55741;53.252;5.788;2022-10-16T01:12:10;6.57;;;1.90;;
54123;SDS011;55741;53.252;5.788;2022-10-16T01:14:48;8.32;;;1.60;;
54123;SDS011;55741;53.252;5.788;2022-10-16T01:17:32;6.28;;;1.92;;
54123;SDS011;55741;53.252;5.788;2022-10-16T01:20:50;8.23;;;2.28;;
54123;SDS011;55741;53.252;5.788;2022-10-16T01:22:59;8.15;;;2.00;;
54123;SDS011;55741;53.252;5.788;2022-10-16T01:25:36;6.22;;;1.70;;
54123;SDS011;55741;53.252;5.788;2022-10-16T01:28:21;5.78;;;1.45;;
54123;SDS011;55741;53.252;5.788;2022-10-16T01:30:53;6.43;;;1.77;;
54123;SDS011;55741;53.252;5.788;2022-10-16T01:33:24;9.77;;;1.95;;
54123;SDS011;55741;53.252;5.788;2022-10-16T01:35:56;8.95;;;1.85;;
54123;SDS011;55741;53.252;5.788;2022-10-16T01:38:32;5.22;;;1.50;;
54123;SDS011;55741;53.252;5.788;2022-10-16T01:41:04;6.05;;;1.63;;
54123;SDS011;55741;53.252;5.788;2022-10-16T01:43:43;5.88;;;1.67;;
54123;SDS011;55741;53.252;5.788;2022-10-16T01:46:15;9.00;;;2.38;;
54123;SDS011;55741;53.252;5.788;2022-10-16T01:48:45;7.50;;;1.85;;
54123;SDS011;55741;53.252;5.788;2022-10-16T01:51:13;11.25;;;1.90;;
54123;SDS011;55741;53.252;5.788;2022-10-16T01:53:42;6.82;;;1.65;;
54123;SDS011;55741;53.252;5.788;2022-10-16T01:56:13;8.52;;;1.67;;
54123;SDS011;55741;53.252;5.788;2022-10-16T01:58:51;4.78;;;2.00;;
54123;SDS011;55741;53.252;5.788;2022-10-16T02:01:21;6.43;;;1.48;;
54123;SDS011;55741;53.252;5.788;2022-10-16T02:03:50;6.38;;;2.03;;
54123;SDS011;55741;53.252;5.788;2022-10-16T02:06:19;5.70;;;1.67;;
54123;SDS011;55741;53.252;5.788;2022-10-16T02:08:45;8.68;;;1.95;;
54123;SDS011;55741;53.252;5.788;2022-10-16T02:11:12;7.35;;;2.03;;
54123;SDS011;55741;53.252;5.788;2022-10-16T02:13:45;5.60;;;1.75;;
54123;SDS011;55741;53.252;5.788;2022-10-16T02:16:15;10.82;;;2.20;;
54123;SDS011;55741;53.252;5.788;2022-10-16T02:18:41;9.95;;;2.85;;
54123;SDS011;55741;53.252;5.788;2022-10-16T02:21:25;8.02;;;2.60;;
54123;SDS011;55741;53.252;5.788;2022-10-16T02:26:51;13.50;;;3.30;;
54123;SDS011;55741;53.252;5.788;2022-10-16T02:29:39;6.55;;;2.05;;
54123;SDS011;55741;53.252;5.788;2022-10-16T02:32:10;9.65;;;2.00;;
54123;SDS011;55741;53.252;5.788;2022-10-16T02:34:40;11.07;;;3.03;;
54123;SDS011;55741;53.252;5.788;2022-10-16T02:37:06;6.50;;;2.22;;
54123;SDS011;55741;53.252;5.788;2022-10-16T02:39:33;6.00;;;2.10;;
54123;SDS011;55741;53.252;5.788;2022-10-16T02:42:00;9.98;;;2.63;;
54123;SDS011;55741;53.252;5.788;2022-10-16T02:44:29;12.52;;;2.80;;
54123;SDS011;55741;53.252;5.788;2022-10-16T02:46:55;7.18;;;3.00;;
54123;SDS011;55741;53.252;5.788;2022-10-16T02:49:21;8.23;;;3.10;;
54123;SDS011;55741;53.252;5.788;2022-10-16T02:51:46;10.35;;;3.38;;
54123;SDS011;55741;53.252;5.788;2022-10-16T02:54:12;11.27;;;3.25;;
54123;SDS011;55741;53.252;5.788;2022-10-16T02:56:38;6.13;;;3.28;;
54123;SDS011;55741;53.252;5.788;2022-10-16T02:59:04;8.45;;;3.17;;
54123;SDS011;55741;53.252;5.788;2022-10-16T03:01:30;9.23;;;3.25;;
54123;SDS011;55741;53.252;5.788;2022-10-16T03:03:56;5.28;;;2.85;;
54123;SDS011;55741;53.252;5.788;2022-10-16T03:06:22;5.95;;;2.63;;
54123;SDS011;55741;53.252;5.788;2022-10-16T03:08:47;7.75;;;2.60;;
54123;SDS011;55741;53.252;5.788;2022-10-16T03:11:13;4.88;;;2.58;;
54123;SDS011;55741;53.252;5.788;2022-10-16T03:13:39;6.35;;;2.90;;
54123;SDS011;55741;53.252;5.788;2022-10-16T03:16:05;10.50;;;2.92;;
54123;SDS011;55741;53.252;5.788;2022-10-16T03:18:31;9.45;;;3.08;;
54123;SDS011;55741;53.252;5.788;2022-10-16T03:20:57;5.68;;;2.72;;
54123;SDS011;55741;53.252;5.788;2022-10-16T03:23:22;7.95;;;2.88;;
54123;SDS011;55741;53.252;5.788;2022-10-16T03:25:48;7.35;;;2.70;;
54123;SDS011;55741;53.252;5.788;2022-10-16T03:28:14;7.97;;;2.67;;
54123;SDS011;55741;53.252;5.788;2022-10-16T03:30:40;5.22;;;2.72;;
54123;SDS011;55741;53.252;5.788;2022-10-16T03:33:06;4.68;;;2.42;;
54123;SDS011;55741;53.252;5.788;2022-10-16T03:35:32;8.63;;;3.00;;
54123;SDS011;55741;53.252;5.788;2022-10-16T03:37:58;6.88;;;2.60;;
54123;SDS011;55741;53.252;5.788;2022-10-16T03:40:24;6.75;;;2.80;;
54123;SDS011;55741;53.252;5.788;2022-10-16T03:42:50;4.57;;;2.88;;
54123;SDS011;55741;53.252;5.788;2022-10-16T03:45:17;11.32;;;2.97;;
54123;SDS011;55741;53.252;5.788;2022-10-16T03:47:43;6.30;;;2.50;;
54123;SDS011;55741;53.252;5.788;2022-10-16T03:50:09;6.88;;;3.20;;
54123;SDS011;55741;53.252;5.788;2022-10-16T03:52:34;8.43;;;2.75;;
54123;SDS011;55741;53.252;5.788;2022-10-16T03:55:00;10.25;;;2.90;;
54123;SDS011;55741;53.252;5.788;2022-10-16T03:57:26;7.22;;;2.03;;
54123;SDS011;55741;53.252;5.788;2022-10-16T03:59:52;8.98;;;2.35;;
54123;SDS011;55741;53.252;5.788;2022-10-16T04:02:18;7.28;;;2.40;;
54123;SDS011;55741;53.252;5.788;2022-10-16T04:04:43;8.98;;;2.42;;
54123;SDS011;55741;53.252;5.788;2022-10-16T04:07:09;6.20;;;2.35;;
54123;SDS011;55741;53.252;5.788;2022-10-16T04:09:35;9.02;;;2.25;;
54123;SDS011;55741;53.252;5.788;2022-10-16T04:12:01;9.65;;;2.10;;
54123;SDS011;55741;53.252;5.788;2022-10-16T04:14:27;8.52;;;2.13;;
54123;SDS011;55741;53.252;5.788;2022-10-16T04:16:52;7.18;;;2.17;;
54123;SDS011;55741;53.252;5.788;2022-10-16T04:19:18;8.10;;;2.38;;
54123;SDS011;55741;53.252;5.788;2022-10-16T04:21:44;7.63;;;1.70;;
54123;SDS011;55741;53.252;5.788;2022-10-16T04:24:10;9.98;;;2.22;;
54123;SDS011;55741;53.252;5.788;2022-10-16T04:26:36;9.88;;;2.33;;
54123;SDS011;55741;53.252;5.788;2022-10-16T04:29:02;6.47;;;2.17;;
54123;SDS011;55741;53.252;5.788;2022-10-16T04:31:28;6.90;;;2.53;;
54123;SDS011;55741;53.252;5.788;2022-10-16T04:33:54;11.32;;;2.85;;
54123;SDS011;55741;53.252;5.788;2022-10-16T04:36:20;5.93;;;2.60;;
54123;SDS011;55741;53.252;5.788;2022-10-16T04:38:46;7.30;;;2.55;;
54123;SDS011;55741;53.252;5.788;2022-10-16T04:41:12;5.10;;;2.30;;
54123;SDS011;55741;53.252;5.788;2022-10-16T04:43:38;9.60;;;2.53;;
54123;SDS011;55741;53.252;5.788;2022-10-16T04:46:05;11.68;;;3.63;;
54123;SDS011;55741;53.252;5.788;2022-10-16T04:48:31;7.25;;;2.15;;
54123;SDS011;55741;53.252;5.788;2022-10-16T04:50:57;10.18;;;2.63;;
54123;SDS011;55741;53.252;5.788;2022-10-16T04:53:23;7.13;;;2.47;;
54123;SDS011;55741;53.252;5.788;2022-10-16T04:55:49;8.65;;;2.10;;
54123;SDS011;55741;53.252;5.788;2022-10-16T04:58:16;8.82;;;2.20;;
54123;SDS011;55741;53.252;5.788;2022-10-16T05:00:41;8.20;;;1.98;;
54123;SDS011;55741;53.252;5.788;2022-10-16T05:03:08;4.85;;;1.95;;
54123;SDS011;55741;53.252;5.788;2022-10-16T05:05:35;6.03;;;2.40;;
54123;SDS011;55741;53.252;5.788;2022-10-16T05:08:01;6.07;;;2.00;;
54123;SDS011;55741;53.252;5.788;2022-10-16T05:10:27;11.73;;;2.25;;
54123;SDS011;55741;53.252;5.788;2022-10-16T05:12:53;7.45;;;2.03;;
54123;SDS011;55741;53.252;5.788;2022-10-16T05:15:19;6.45;;;1.85;;
54123;SDS011;55741;53.252;5.788;2022-10-16T05:17:45;6.57;;;1.77;;
54123;SDS011;55741;53.252;5.788;2022-10-16T05:20:12;6.55;;;2.00;;
54123;SDS011;55741;53.252;5.788;2022-10-16T05:22:38;6.55;;;1.70;;
54123;SDS011;55741;53.252;5.788;2022-10-16T05:25:04;6.50;;;1.98;;
54123;SDS011;55741;53.252;5.788;2022-10-16T05:27:30;7.72;;;2.80;;
54123;SDS011;55741;53.252;5.788;2022-10-16T05:29:56;7.35;;;2.15;;
54123;SDS011;55741;53.252;5.788;2022-10-16T05:32:22;6.30;;;1.95;;
54123;SDS011;55741;53.252;5.788;2022-10-16T05:34:48;4.63;;;2.08;;
54123;SDS011;55741;53.252;5.788;2022-10-16T05:37:13;7.13;;;2.50;;
54123;SDS011;55741;53.252;5.788;2022-10-16T05:39:40;6.15;;;2.42;;
54123;SDS011;55741;53.252;5.788;2022-10-16T05:42:05;6.43;;;3.08;;
54123;SDS011;55741;53.252;5.788;2022-10-16T05:44:32;8.50;;;3.03;;
54123;SDS011;55741;53.252;5.788;2022-10-16T05:46:59;6.03;;;3.20;;
54123;SDS011;55741;53.252;5.788;2022-10-16T05:49:25;11.13;;;4.10;;
54123;SDS011;55741;53.252;5.788;2022-10-16T05:51:51;10.07;;;3.83;;
54123;SDS011;55741;53.252;5.788;2022-10-16T05:54:17;7.65;;;3.83;;
54123;SDS011;55741;53.252;5.788;2022-10-16T05:56:43;9.95;;;4.05;;
54123;SDS011;55741;53.252;5.788;2022-10-16T05:59:10;10.10;;;3.90;;
54123;SDS011;55741;53.252;5.788;2022-10-16T06:01:35;6.35;;;3.88;;
54123;SDS011;55741;53.252;5.788;2022-10-16T06:04:01;7.90;;;3.85;;
54123;SDS011;55741;53.252;5.788;2022-10-16T06:06:27;8.15;;;3.65;;
54123;SDS011;55741;53.252;5.788;2022-10-16T06:08:55;11.10;;;5.30;;
54123;SDS011;55741;53.252;5.788;2022-10-16T06:11:24;10.13;;;4.22;;
54123;SDS011;55741;53.252;5.788;2022-10-16T06:13:52;11.68;;;3.63;;
54123;SDS011;55741;53.252;5.788;2022-10-16T06:16:19;8.77;;;4.25;;
54123;SDS011;55741;53.252;5.788;2022-10-16T06:18:45;8.95;;;3.75;;
54123;SDS011;55741;53.252;5.788;2022-10-16T06:21:13;10.63;;;3.28;;
54123;SDS011;55741;53.252;5.788;2022-10-16T06:23:41;10.10;;;4.13;;
54123;SDS011;55741;53.252;5.788;2022-10-16T06:26:08;10.20;;;3.30;;
54123;SDS011;55741;53.252;5.788;2022-10-16T06:28:36;12.73;;;3.45;;
54123;SDS011;55741;53.252;5.788;2022-10-16T06:31:03;8.80;;;3.50;;
54123;SDS011;55741;53.252;5.788;2022-10-16T06:33:30;12.88;;;4.00;;
54123;SDS011;55741;53.252;5.788;2022-10-16T06:36:00;7.28;;;3.63;;
54123;SDS011;55741;53.252;5.788;2022-10-16T06:38:28;11.77;;;3.55;;
54123;SDS011;55741;53.252;5.788;2022-10-16T06:40:54;11.18;;;4.10;;
54123;SDS011;55741;53.252;5.788;2022-10-16T06:43:20;9.55;;;3.55;;
54123;SDS011;55741;53.252;5.788;2022-10-16T06:45:55;10.88;;;4.05;;
54123;SDS011;55741;53.252;5.788;2022-10-16T06:48:23;10.65;;;2.80;;
54123;SDS011;55741;53.252;5.788;2022-10-16T06:53:31;8.52;;;2.80;;
54123;SDS011;55741;53.252;5.788;2022-10-16T06:56:06;11.30;;;2.95;;
54123;SDS011;55741;53.252;5.788;2022-10-16T06:58:36;8.18;;;2.70;;
54123;SDS011;55741;53.252;5.788;2022-10-16T07:01:03;10.27;;;2.67;;
54123;SDS011;55741;53.252;5.788;2022-10-16T07:03:31;11.27;;;2.72;;
54123;SDS011;55741;53.252;5.788;2022-10-16T07:06:00;9.43;;;2.47;;
54123;SDS011;55741;53.252;5.788;2022-10-16T07:08:27;8.75;;;2.20;;
54123;SDS011;55741;53.252;5.788;2022-10-16T07:11:03;6.93;;;2.47;;
54123;SDS011;55741;53.252;5.788;2022-10-16T07:13:34;9.07;;;2.33;;
54123;SDS011;55741;53.252;5.788;2022-10-16T07:16:08;11.38;;;2.95;;
54123;SDS011;55741;53.252;5.788;2022-10-16T07:18:35;13.57;;;3.33;;
54123;SDS011;55741;53.252;5.788;2022-10-16T07:21:08;9.60;;;2.78;;
54123;SDS011;55741;53.252;5.788;2022-10-16T07:23:35;8.98;;;2.92;;
54123;SDS011;55741;53.252;5.788;2022-10-16T07:26:02;8.25;;;2.60;;
54123;SDS011;55741;53.252;5.788;2022-10-16T07:28:28;6.95;;;2.28;;
54123;SDS011;55741;53.252;5.788;2022-10-16T07:30:55;11.20;;;2.65;;
54123;SDS011;55741;53.252;5.788;2022-10-16T07:33:21;8.88;;;2.33;;
54123;SDS011;55741;53.252;5.788;2022-10-16T07:35:50;5.13;;;2.20;;
54123;SDS011;55741;53.252;5.788;2022-10-16T07:38:18;6.25;;;2.22;;
54123;SDS011;55741;53.252;5.788;2022-10-16T07:40:44;10.45;;;2.95;;
54123;SDS011;55741;53.252;5.788;2022-10-16T07:43:10;10.05;;;2.88;;
54123;SDS011;55741;53.252;5.788;2022-10-16T07:45:37;7.60;;;3.22;;
54123;SDS011;55741;53.252;5.788;2022-10-16T07:48:03;5.03;;;2.60;;
54123;SDS011;55741;53.252;5.788;2022-10-16T07:50:31;13.85;;;2.90;;
54123;SDS011;55741;53.252;5.788;2022-10-16T07:52:56;8.25;;;2.40;;
54123;SDS011;55741;53.252;5.788;2022-10-16T07:55:22;10.93;;;3.00;;
54123;SDS011;55741;53.252;5.788;2022-10-16T07:57:48;10.07;;;2.72;;
54123;SDS011;55741;53.252;5.788;2022-10-16T08:00:14;7.50;;;2.95;;
54123;SDS011;55741;53.252;5.788;2022-10-16T08:02:40;10.07;;;2.65;;
54123;SDS011;55741;53.252;5.788;2022-10-16T08:05:06;7.90;;;3.00;;
54123;SDS011;55741;53.252;5.788;2022-10-16T08:07:32;8.18;;;2.55;;
54123;SDS011;55741;53.252;5.788;2022-10-16T08:09:58;10.32;;;3.22;;
54123;SDS011;55741;53.252;5.788;2022-10-16T08:12:25;12.77;;;3.17;;
54123;SDS011;55741;53.252;5.788;2022-10-16T08:14:51;11.32;;;2.80;;
54123;SDS011;55741;53.252;5.788;2022-10-16T08:17:17;8.57;;;2.95;;
54123;SDS011;55741;53.252;5.788;2022-10-16T08:19:46;8.35;;;2.83;;
54123;SDS011;55741;53.252;5.788;2022-10-16T08:22:13;10.88;;;2.50;;
54123;SDS011;55741;53.252;5.788;2022-10-16T08:24:39;9.50;;;3.20;;
54123;SDS011;55741;53.252;5.788;2022-10-16T08:27:06;7.15;;;3.10;;
54123;SDS011;55741;53.252;5.788;2022-10-16T08:29:32;11.38;;;2.70;;
54123;SDS011;55741;53.252;5.788;2022-10-16T08:31:58;10.20;;;2.45;;
54123;SDS011;55741;53.252;5.788;2022-10-16T08:34:24;9.65;;;2.85;;
54123;SDS011;55741;53.252;5.788;2022-10-16T08:36:52;9.82;;;2.97;;
54123;SDS011;55741;53.252;5.788;2022-10-16T08:39:20;9.15;;;2.80;;
54123;SDS011;55741;53.252;5.788;2022-10-16T08:44:30;13.75;;;2.90;;
54123;SDS011;55741;53.252;5.788;2022-10-16T08:47:26;9.48;;;2.33;;
54123;SDS011;55741;53.252;5.788;2022-10-16T08:50:13;11.90;;;2.42;;
54123;SDS011;55741;53.252;5.788;2022-10-16T08:52:48;10.80;;;3.38;;
54123;SDS011;55741;53.252;5.788;2022-10-16T08:57:52;12.43;;;3.40;;
54123;SDS011;55741;53.252;5.788;2022-10-16T09:00:17;12.35;;;3.42;;
54123;SDS011;55741;53.252;5.788;2022-10-16T09:10:59;13.20;;;3.97;;
54123;SDS011;55741;53.252;5.788;2022-10-16T09:16:43;19.40;;;3.88;;
54123;SDS011;55741;53.252;5.788;2022-10-16T09:19:19;15.57;;;3.30;;
54123;SDS011;55741;53.252;5.788;2022-10-16T09:22:02;15.40;;;2.80;;
54123;SDS011;55741;53.252;5.788;2022-10-16T09:24:37;17.05;;;3.17;;
54123;SDS011;55741;53.252;5.788;2022-10-16T09:27:03;14.82;;;3.33;;
54123;SDS011;55741;53.252;5.788;2022-10-16T09:29:29;13.38;;;3.58;;
54123;SDS011;55741;53.252;5.788;2022-10-16T09:31:55;16.20;;;3.10;;
54123;SDS011;55741;53.252;5.788;2022-10-16T09:35:01;17.98;;;3.17;;
54123;SDS011;55741;53.252;5.788;2022-10-16T09:37:27;14.02;;;2.75;;
54123;SDS011;55741;53.252;5.788;2022-10-16T09:39:54;13.90;;;3.00;;
54123;SDS011;55741;53.252;5.788;2022-10-16T09:42:20;14.82;;;2.70;;
54123;SDS011;55741;53.252;5.788;2022-10-16T09:44:49;14.48;;;3.20;;
54123;SDS011;55741;53.252;5.788;2022-10-16T09:47:18;18.95;;;3.50;;
54123;SDS011;55741;53.252;5.788;2022-10-16T09:52:24;24.80;;;3.63;;
54123;SDS011;55741;53.252;5.788;2022-10-16T09:54:56;17.90;;;3.58;;
54123;SDS011;55741;53.252;5.788;2022-10-16T09:57:24;18.33;;;3.53;;
54123;SDS011;55741;53.252;5.788;2022-10-16T09:59:52;18.58;;;3.60;;
54123;SDS011;55741;53.252;5.788;2022-10-16T10:02:29;19.92;;;4.72;;
54123;SDS011;55741;53.252;5.788;2022-10-16T10:04:59;17.42;;;3.72;;
54123;SDS011;55741;53.252;5.788;2022-10-16T10:07:26;24.95;;;4.50;;
54123;SDS011;55741;53.252;5.788;2022-10-16T10:09:57;20.42;;;4.32;;
54123;SDS011;55741;53.252;5.788;2022-10-16T10:12:24;19.38;;;3.47;;
54123;SDS011;55741;53.252;5.788;2022-10-16T10:14:53;21.85;;;4.45;;
54123;SDS011;55741;53.252;5.788;2022-10-16T10:17:23;17.73;;;3.20;;
54123;SDS011;55741;53.252;5.788;2022-10-16T10:19:54;22.35;;;3.83;;
54123;SDS011;55741;53.252;5.788;2022-10-16T10:22:29;15.27;;;3.35;;
54123;SDS011;55741;53.252;5.788;2022-10-16T10:34:05;17.20;;;3.72;;
54123;SDS011;55741;53.252;5.788;2022-10-16T10:37:04;17.73;;;3.75;;
54123;SDS011;55741;53.252;5.788;2022-10-16T10:39:43;19.45;;;4.15;;
54123;SDS011;55741;53.252;5.788;2022-10-16T10:45:08;23.70;;;4.13;;
54123;SDS011;55741;53.252;5.788;2022-10-16T10:50:30;16.35;;;3.65;;
54123;SDS011;55741;53.252;5.788;2022-10-16T11:02:04;25.23;;;4.85;;
54123;SDS011;55741;53.252;5.788;2022-10-16T11:05:08;12.52;;;3.80;;
54123;SDS011;55741;53.252;5.788;2022-10-16T11:07:58;19.27;;;3.53;;
54123;SDS011;55741;53.252;5.788;2022-10-16T11:10:50;19.10;;;3.38;;
54123;SDS011;55741;53.252;5.788;2022-10-16T11:13:45;15.25;;;3.17;;
54123;SDS011;55741;53.252;5.788;2022-10-16T11:21:39;19.67;;;3.95;;
54123;SDS011;55741;53.252;5.788;2022-10-16T11:24:30;15.35;;;3.00;;
54123;SDS011;55741;53.252;5.788;2022-10-16T11:27:04;15.10;;;3.13;;
54123;SDS011;55741;53.252;5.788;2022-10-16T11:29:34;19.92;;;4.15;;
54123;SDS011;55741;53.252;5.788;2022-10-16T11:32:09;15.90;;;3.38;;
54123;SDS011;55741;53.252;5.788;2022-10-16T11:34:48;14.05;;;3.13;;
54123;SDS011;55741;53.252;5.788;2022-10-16T11:37:32;19.58;;;4.13;;
54123;SDS011;55741;53.252;5.788;2022-10-16T11:40:48;20.88;;;3.70;;
54123;SDS011;55741;53.252;5.788;2022-10-16T11:43:06;14.27;;;2.90;;
54123;SDS011;55741;53.252;5.788;2022-10-16T11:45:46;16.40;;;3.83;;
54123;SDS011;55741;53.252;5.788;2022-10-16T11:48:20;13.85;;;3.10;;
54123;SDS011;55741;53.252;5.788;2022-10-16T11:57:23;15.75;;;3.33;;
54123;SDS011;55741;53.252;5.788;2022-10-16T11:59:57;20.90;;;3.40;;
54123;SDS011;55741;53.252;5.788;2022-10-16T12:08:28;13.02;;;3.00;;
54123;SDS011;55741;53.252;5.788;2022-10-16T12:10:40;13.50;;;3.15;;
54123;SDS011;55741;53.252;5.788;2022-10-16T12:15:52;17.60;;;3.85;;
54123;SDS011;55741;53.252;5.788;2022-10-16T12:18:49;14.82;;;2.95;;
54123;SDS011;55741;53.252;5.788;2022-10-16T12:21:30;25.88;;;4.18;;
54123;SDS011;55741;53.252;5.788;2022-10-16T12:23:58;14.15;;;3.67;;
54123;SDS011;55741;53.252;5.788;2022-10-16T12:29:09;11.95;;;3.10;;
54123;SDS011;55741;53.252;5.788;2022-10-16T12:31:46;17.35;;;3.47;;
54123;SDS011;55741;53.252;5.788;2022-10-16T12:34:20;16.40;;;3.15;;
54123;SDS011;55741;53.252;5.788;2022-10-16T12:36:55;15.35;;;3.42;;
54123;SDS011;55741;53.252;5.788;2022-10-16T12:39:32;11.32;;;3.28;;
54123;SDS011;55741;53.252;5.788;2022-10-16T12:42:05;17.70;;;4.20;;
54123;SDS011;55741;53.252;5.788;2022-10-16T12:44:45;12.82;;;2.65;;
54123;SDS011;55741;53.252;5.788;2022-10-16T12:47:24;16.80;;;3.28;;
54123;SDS011;55741;53.252;5.788;2022-10-16T12:50:02;15.52;;;3.13;;
54123;SDS011;55741;53.252;5.788;2022-10-16T12:52:36;16.35;;;3.08;;
54123;SDS011;55741;53.252;5.788;2022-10-16T12:55:04;10.20;;;2.65;;
54123;SDS011;55741;53.252;5.788;2022-10-16T13:06:20;14.80;;;3.63;;
54123;SDS011;55741;53.252;5.788;2022-10-16T13:11:51;19.55;;;3.58;;
54123;SDS011;55741;53.252;5.788;2022-10-16T13:17:41;14.45;;;2.58;;
54123;SDS011;55741;53.252;5.788;2022-10-16T13:28:36;16.35;;;3.85;;
54123;SDS011;55741;53.252;5.788;2022-10-16T13:31:03;16.42;;;3.45;;
54123;SDS011;55741;53.252;5.788;2022-10-16T13:33:32;20.48;;;3.55;;
54123;SDS011;55741;53.252;5.788;2022-10-16T13:36:02;14.93;;;3.58;;
54123;SDS011;55741;53.252;5.788;2022-10-16T13:38:33;14.52;;;3.35;;
54123;SDS011;55741;53.252;5.788;2022-10-16T13:41:01;16.70;;;3.30;;
54123;SDS011;55741;53.252;5.788;2022-10-16T13:43:32;17.70;;;3.78;;
54123;SDS011;55741;53.252;5.788;2022-10-16T13:46:02;17.75;;;3.75;;
54123;SDS011;55741;53.252;5.788;2022-10-16T13:48:38;17.63;;;3.35;;
54123;SDS011;55741;53.252;5.788;2022-10-16T13:51:06;18.05;;;2.95;;
54123;SDS011;55741;53.252;5.788;2022-10-16T13:53:33;20.67;;;3.80;;
54123;SDS011;55741;53.252;5.788;2022-10-16T13:56:00;19.77;;;3.67;;
54123;SDS011;55741;53.252;5.788;2022-10-16T13:58:30;16.92;;;3.75;;
54123;SDS011;55741;53.252;5.788;2022-10-16T14:00:57;18.75;;;3.92;;
54123;SDS011;55741;53.252;5.788;2022-10-16T14:03:34;18.70;;;3.97;;
54123;SDS011;55741;53.252;5.788;2022-10-16T14:06:01;16.27;;;3.15;;
54123;SDS011;55741;53.252;5.788;2022-10-16T14:08:29;18.63;;;3.50;;
54123;SDS011;55741;53.252;5.788;2022-10-16T14:10:57;16.25;;;3.45;;
54123;SDS011;55741;53.252;5.788;2022-10-16T14:16:05;18.17;;;3.20;;
54123;SDS011;55741;53.252;5.788;2022-10-16T14:18:34;13.07;;;3.15;;
54123;SDS011;55741;53.252;5.788;2022-10-16T14:21:03;13.68;;;3.28;;
54123;SDS011;55741;53.252;5.788;2022-10-16T14:23:32;16.35;;;3.00;;
54123;SDS011;55741;53.252;5.788;2022-10-16T14:26:11;16.48;;;3.42;;
54123;SDS011;55741;53.252;5.788;2022-10-16T14:28:39;12.68;;;2.83;;
54123;SDS011;55741;53.252;5.788;2022-10-16T14:36:18;19.83;;;3.30;;
54123;SDS011;55741;53.252;5.788;2022-10-16T14:38:53;18.08;;;4.05;;
54123;SDS011;55741;53.252;5.788;2022-10-16T14:41:22;13.85;;;2.53;;
54123;SDS011;55741;53.252;5.788;2022-10-16T14:43:53;15.13;;;3.17;;
54123;SDS011;55741;53.252;5.788;2022-10-16T14:46:32;14.05;;;3.05;;
54123;SDS011;55741;53.252;5.788;2022-10-16T14:51:38;12.65;;;3.42;;
54123;SDS011;55741;53.252;5.788;2022-10-16T14:54:10;15.20;;;2.95;;
54123;SDS011;55741;53.252;5.788;2022-10-16T14:59:23;17.60;;;3.03;;
54123;SDS011;55741;53.252;5.788;2022-10-16T15:01:59;16.20;;;3.78;;
54123;SDS011;55741;53.252;5.788;2022-10-16T15:04:25;15.38;;;2.88;;
54123;SDS011;55741;53.252;5.788;2022-10-16T15:06:51;19.02;;;3.50;;
54123;SDS011;55741;53.252;5.788;2022-10-16T15:09:17;13.95;;;3.53;;
54123;SDS011;55741;53.252;5.788;2022-10-16T15:11:43;15.30;;;3.78;;
54123;SDS011;55741;53.252;5.788;2022-10-16T15:14:12;17.63;;;4.40;;
54123;SDS011;55741;53.252;5.788;2022-10-16T15:16:39;17.02;;;3.85;;
54123;SDS011;55741;53.252;5.788;2022-10-16T15:19:04;15.65;;;2.92;;
54123;SDS011;55741;53.252;5.788;2022-10-16T15:21:31;12.75;;;2.63;;
54123;SDS011;55741;53.252;5.788;2022-10-16T15:23:58;13.95;;;2.50;;
54123;SDS011;55741;53.252;5.788;2022-10-16T15:26:28;14.05;;;3.17;;
54123;SDS011;55741;53.252;5.788;2022-10-16T15:28:55;20.17;;;3.13;;
54123;SDS011;55741;53.252;5.788;2022-10-16T15:31:21;19.20;;;3.65;;
54123;SDS011;55741;53.252;5.788;2022-10-16T15:33:51;15.57;;;3.50;;
54123;SDS011;55741;53.252;5.788;2022-10-16T15:36:27;14.50;;;3.13;;
54123;SDS011;55741;53.252;5.788;2022-10-16T15:38:55;18.17;;;3.95;;
54123;SDS011;55741;53.252;5.788;2022-10-16T15:41:22;23.73;;;4.15;;
54123;SDS011;55741;53.252;5.788;2022-10-16T15:43:48;16.25;;;3.20;;
54123;SDS011;55741;53.252;5.788;2022-10-16T15:46:17;15.98;;;3.00;;
54123;SDS011;55741;53.252;5.788;2022-10-16T15:48:44;15.30;;;3.28;;
54123;SDS011;55741;53.252;5.788;2022-10-16T15:51:10;18.35;;;3.65;;
54123;SDS011;55741;53.252;5.788;2022-10-16T15:53:36;19.33;;;3.88;;
54123;SDS011;55741;53.252;5.788;2022-10-16T15:56:03;16.33;;;3.60;;
54123;SDS011;55741;53.252;5.788;2022-10-16T15:58:30;18.05;;;3.45;;
54123;SDS011;55741;53.252;5.788;2022-10-16T16:00:59;20.40;;;4.47;;
54123;SDS011;55741;53.252;5.788;2022-10-16T16:03:31;15.18;;;4.25;;
54123;SDS011;55741;53.252;5.788;2022-10-16T16:05:58;17.33;;;3.70;;
54123;SDS011;55741;53.252;5.788;2022-10-16T16:08:29;26.75;;;4.47;;
54123;SDS011;55741;53.252;5.788;2022-10-16T16:10:58;15.60;;;3.58;;
54123;SDS011;55741;53.252;5.788;2022-10-16T16:13:29;16.92;;;3.10;;
54123;SDS011;55741;53.252;5.788;2022-10-16T16:15:55;17.05;;;3.80;;
54123;SDS011;55741;53.252;5.788;2022-10-16T16:18:21;22.40;;;3.78;;
54123;SDS011;55741;53.252;5.788;2022-10-16T16:20:47;14.75;;;3.40;;
54123;SDS011;55741;53.252;5.788;2022-10-16T16:23:13;16.58;;;3.55;;
54123;SDS011;55741;53.252;5.788;2022-10-16T16:25:39;15.43;;;3.25;;
54123;SDS011;55741;53.252;5.788;2022-10-16T16:28:05;17.88;;;3.67;;
54123;SDS011;55741;53.252;5.788;2022-10-16T16:30:32;14.38;;;4.10;;
54123;SDS011;55741;53.252;5.788;2022-10-16T16:32:58;18.92;;;3.83;;
54123;SDS011;55741;53.252;5.788;2022-10-16T16:35:24;19.63;;;4.95;;
54123;SDS011;55741;53.252;5.788;2022-10-16T16:37:49;18.80;;;3.78;;
54123;SDS011;55741;53.252;5.788;2022-10-16T16:40:15;19.58;;;3.97;;
54123;SDS011;55741;53.252;5.788;2022-10-16T16:42:41;19.23;;;4.43;;
54123;SDS011;55741;53.252;5.788;2022-10-16T16:45:07;15.30;;;3.20;;
54123;SDS011;55741;53.252;5.788;2022-10-16T16:47:33;14.88;;;3.58;;
54123;SDS011;55741;53.252;5.788;2022-10-16T16:49:59;16.80;;;3.58;;